Aeroporto :
LOGIN :

Iscrizione | Disclaimer

   EN    FR    IT 

 










Sommario :    VFR   VFR Marginale   IFR   IFR Intensivo   IFR Molto Intensivo
Visibilità : 
Base nubi : 
>= 8 km
>= 3000ft
5 / 8 km
1000 / 3000 ft
1500m / 5 km
500 / 1000 ft
800 / 1500m
200 / 500 ft
< 800m
< 200 ft
Simboli :   Temporali  Nebbia  Neve Forte  Precipitazioni Forti  Vento > 20 kt
SIGMETs :   Varie  Temporali  Ghiacco  Turbolenza  Onda orograficha  Ceneri Vulcaniche






- Altitudine del aeroporto : 7 ft
- Codice IATA : POW


LJPZ - Portoroz

ULTIMO METAR :
  • 201400Z 07003KT 040V100 9999 FEW050 BKN075 14/08 Q1010

METARs OBSOLETI :
  • 201330Z 08003KT 040V130 9999 FEW050 BKN075 14/08 Q1010
  • 201300Z 09003KT 050V130 9999 SCT046 OVC070 14/07 Q1010
  • 201230Z 09004KT 040V160 9999 FEW043 BKN060 OVC080 14/07 Q1010
  • 201200Z 08006KT 030V120 9999 FEW043 SCT060 OVC080 14/07 Q1010
  • 201130Z 08007KT 030V110 9999 SCT043 OVC080 14/07 Q1010

TAF TAF LJPZ
Valido dal 20 a 12 ore il 20 a 21 ore UTC


201100Z 2012/2021 09005KT 9999 SCT050 BKN090
TEMPO 2012/2021 06010KT -RA FEW030 OVC050



MetMap, La meteo Aeronautica in un colpo d'occhio ! - Copyright ORBIFLY Dicembre 2007 - Disclaimer

ORBIFLY MET'MAP TEAM :

Programmazione e sviluppo : Alexandra Zaïnal
Concezione e sviluppo : Baudouin d'Aumeries
Co-Programmazione e sviluppo : Marc-Olivier Méhu
Supporto tecnico e logistico : Manuel Goepfert
Aiuto per la traduzione : Arnaldo La Scala

Contatto : metmap@orbifly.com




FONTI E CREDITI :

   NOAA